Hlavní strana
METAR-TAF:

METAR-TAF

Letiště :

Zaqatala, Ázerbájdžán

zeměpisná šířka: 41-33-44N, zeměpisná délka: 46-40-02E, výška: 330 m

Aktuální stav počasí

Zpráva byla vytvořena před 51 minutami, v 13:00 UTC
Severoseverozápadní vítr 6 kt
Teplota 8°C
Vlhkost vzduchu 87%
Tlak 1021 hPa
Viditelnost 10 km a více
Zataženo ve výšce 3000 ft
slabý déšť

METAR: UBBY 181300Z 34006KT 9999 -RA OVC030 08/06 Q1021 R33/290060 NOSIG RMK MT OBSC

Čas: 17:51 (13:51 UTC)

Předpověď počasí

Zpráva byla vytvořena před 2 hodinami a 51 minutami, v 11:00 UTC
Předpověď platná od 18 v 12 UTC do 18 v 21 UTC
vítr z různých směrů 4 kt
Viditelnost 10 km a více
Polojasno ve výšce 2000 ft
Zataženo ve výšce 4000 ft
Dočasný
od 18 v 16 UTC do 18 v 21 UTC
vítr z různých směrů 14 kt
Polojasno ve výšce 1000 ft, Cumulonimbus.
Zataženo ve výšce 2000 ft
slabé dešťové přeháňky

TAF: UBBY 181100Z 1812/1821 VRB04KT 9999 SCT020 OVC040 TEMPO 1816/1821 VRB14KT -SHRA SCT010CB OVC020

Stav a předpovědi počasí z více než 4 000 letišť (zprávy METAR a TAF).

Červené a žluté tečky na mapě představují dostupné meteorologické stanice.

Když kurzor umístíte na tečku, zobrazí se název stanice.

Pak kliknutím zobrazíte stav a předpověď počasí.

Chcete-li změnit mapu, kliknutím na zelené tlačítko se znaménkem +mapu přiblížíte, kliknutím na zelené tlačítko se znaménkem – mapu oddálíte a kliknutím na zelené šipky přejdete na sousední mapy.


METAR-TAF: